Archival Weather

Tokyo Intl

Tokyo, Japan (RJTT)

Report from: Sunday, March 19, 2023 1:30 AM JST
Current time: Tuesday, July 16, 2024 6:14 PM JST

Current weather – Weather history – Daily summaries
Weather forecast

Temperature8.0°C (46.4°F)
Wind chill5.0°C (41.1°F)
Dew point5.0°C (41.0°F)
Winds 10 kts (5.1 m/s, 11.5 mph) North (10°)
Visibility6.2 mi. (10 km)
Clouds Few clouds 1,500 ft. (457 m)
Ceiling: Broken clouds 9,000 ft. (2,743 m)
Altimeter29.91 in.Hg (1013 mB)
Relative humidity81 %
Density altitude-705 ft. (-215 m)
Remarks No significant changes expected in the next two hours
Flight conditions Visual Meteorological Conditions
Raw dataRJTT 181630Z 01010KT 9999 FEW015 BKN090 08/05 Q1013 NOSIG RMK 1CU015 7AC090 A2992
An error has occurred. This application may no longer respond until reloaded. Reload 🗙